Time;durP1;ratioP1;P1;durP2;ratioP2;P2;SDS_P1;SDS_P2;PMS_P1;PMS_P2;Temp;Humidity;BMP_temperature;BMP_pressure;BME280_temperature;BME280_humidity;BME280_pressure;Samples;Min_cycle;Max_cycle;Signal;HPM_P1;HPM_P2
2022/04/17 00:02:18;;;;;;;;;;;15.10;97.40;;;;;;5093269;28;19914;-70
2022/04/17 00:04:43;;;;;;;;;;;15.10;97.30;;;;;;5092420;28;19998;-69
2022/04/17 00:07:09;;;;;;;;;;;15.10;97.10;;;;;;5092455;28;19912;-69
2022/04/17 00:09:35;;;;;;;;;;;15.10;97.00;;;;;;5092832;28;20340;-69
2022/04/17 00:12:01;;;;;;;;;;;15.10;97.30;;;;;;5073903;28;19955;-69
2022/04/17 00:14:27;;;;;;;;;;;15.10;97.20;;;;;;5092374;28;20315;-69
2022/04/17 00:16:55;;;;;;;;;;;15.00;97.30;;;;;;5092258;28;20336;-69
2022/04/17 00:19:21;;;;;;;;;;;15.00;97.10;;;;;;5092439;28;19954;-70
2022/04/17 00:21:48;;;;;;;;;;;14.90;97.00;;;;;;5092194;28;19992;-71
2022/04/17 00:24:15;;;;;;;;;;;14.90;97.20;;;;;;5092282;28;19926;-71
2022/04/17 00:26:41;;;;;;;;;;;14.90;97.40;;;;;;5092062;28;19953;-69
2022/04/17 00:29:07;;;;;;;;;;;14.80;97.30;;;;;;5073110;28;19915;-70
2022/04/17 00:31:33;;;;;;;;;;;14.80;97.10;;;;;;5091461;28;19915;-70
2022/04/17 00:33:59;;;;;;;;;;;14.80;96.80;;;;;;5091860;28;20223;-69
2022/04/17 00:36:25;;;;;;;;;;;14.80;96.60;;;;;;5091885;28;19998;-70
2022/04/17 00:38:51;;;;;;;;;;;14.80;96.40;;;;;;5092208;28;19954;-71
2022/04/17 00:41:17;;;;;;;;;;;14.80;95.60;;;;;;5073282;28;19953;-70
2022/04/17 00:43:46;;;;;;;;;;;14.80;94.80;;;;;;5091547;28;19940;-69
2022/04/17 00:46:12;;;;;;;;;;;14.90;94.40;;;;;;5091523;28;19908;-69
2022/04/17 00:48:38;;;;;;;;;;;14.90;94.60;;;;;;5091536;28;19916;-69
2022/04/17 00:51:05;;;;;;;;;;;14.90;94.40;;;;;;5091320;28;20685;-69
2022/04/17 00:53:31;;;;;;;;;;;15.00;94.40;;;;;;5091662;28;20054;-70
2022/04/17 00:55:58;;;;;;;;;;;14.90;94.30;;;;;;5091501;28;19965;-69
2022/04/17 00:58:25;;;;;;;;;;;14.90;94.60;;;;;;5091548;28;19915;-70
2022/04/17 01:00:50;;;;;;;;;;;14.90;94.60;;;;;;5091520;28;19908;-69
2022/04/17 01:03:17;;;;;;;;;;;14.80;94.90;;;;;;5091553;28;19909;-69
2022/04/17 01:05:44;;;;;;;;;;;14.80;95.00;;;;;;5091908;28;20000;-70
2022/04/17 01:08:10;;;;;;;;;;;14.70;95.10;;;;;;5091273;28;19938;-69
2022/04/17 01:10:37;;;;;;;;;;;14.60;95.30;;;;;;5091627;28;19916;-69
2022/04/17 01:13:03;;;;;;;;;;;14.60;95.20;;;;;;5091162;28;19962;-70
2022/04/17 01:15:29;;;;;;;;;;;14.50;95.20;;;;;;5091368;28;20086;-69
2022/04/17 01:17:55;;;;;;;;;;;14.50;95.10;;;;;;5091137;28;19909;-70
2022/04/17 01:20:21;;;;;;;;;;;14.50;95.20;;;;;;5091129;28;19908;-69
2022/04/17 01:22:48;;;;;;;;;;;14.50;95.00;;;;;;5091076;28;20011;-69
2022/04/17 01:28:00;;;;;;;;;;;14.60;94.60;;;;;;5091204;28;19967;-69
2022/04/17 01:30:26;;;;;;;;;;;14.50;94.60;;;;;;5091336;28;19961;-69
2022/04/17 01:32:52;;;;;;;;;;;14.50;94.70;;;;;;5091149;28;19908;-70
2022/04/17 01:35:17;;;;;;;;;;;14.50;95.00;;;;;;5090975;28;19908;-70
2022/04/17 01:37:47;;;;;;;;;;;14.50;94.60;;;;;;5090838;28;20042;-70
2022/04/17 01:40:13;;;;;;;;;;;14.50;94.50;;;;;;5090826;28;20010;-69
2022/04/17 01:42:38;;;;;;;;;;;14.50;94.40;;;;;;5090558;28;19951;-68
2022/04/17 01:45:04;;;;;;;;;;;14.60;94.80;;;;;;5091231;28;19908;-69
2022/04/17 01:47:30;;;;;;;;;;;14.60;94.80;;;;;;5090842;28;19912;-69
2022/04/17 01:49:56;;;;;;;;;;;14.60;94.50;;;;;;5090779;28;19924;-70
2022/04/17 01:52:22;;;;;;;;;;;14.70;94.50;;;;;;5090863;28;19927;-69
2022/04/17 01:54:48;;;;;;;;;;;14.70;94.50;;;;;;5090877;28;19952;-69
2022/04/17 01:57:14;;;;;;;;;;;14.70;94.40;;;;;;5090987;28;19919;-69
2022/04/17 01:59:39;;;;;;;;;;;14.80;94.30;;;;;;5091002;28;19919;-69
2022/04/17 02:02:05;;;;;;;;;;;14.70;94.40;;;;;;5090823;28;20443;-69
2022/04/17 02:04:35;;;;;;;;;;;14.70;94.50;;;;;;5090461;28;19908;-69
2022/04/17 02:07:02;;;;;;;;;;;14.70;94.50;;;;;;5090631;28;19908;-69
2022/04/17 02:09:28;;;;;;;;;;;14.70;94.60;;;;;;5091057;28;19909;-69
2022/04/17 02:11:54;;;;;;;;;;;14.70;94.20;;;;;;5090700;28;19908;-70
2022/04/17 02:14:20;;;;;;;;;;;14.70;94.00;;;;;;5090870;28;19912;-69
2022/04/17 02:16:46;;;;;;;;;;;14.80;93.80;;;;;;5090868;28;19960;-69
2022/04/17 02:19:12;;;;;;;;;;;14.80;93.80;;;;;;5090661;28;19908;-69
2022/04/17 02:21:38;;;;;;;;;;;14.80;93.50;;;;;;5090421;28;20328;-70
2022/04/17 02:24:05;;;;;;;;;;;14.80;93.50;;;;;;5090815;28;19920;-69
2022/04/17 02:26:31;;;;;;;;;;;14.90;93.30;;;;;;5090713;28;19999;-69
2022/04/17 02:28:57;;;;;;;;;;;14.90;93.20;;;;;;5090507;28;19992;-69
2022/04/17 02:31:24;;;;;;;;;;;14.90;93.20;;;;;;5090503;28;20430;-68
2022/04/17 02:33:51;;;;;;;;;;;14.90;93.00;;;;;;5090879;28;20348;-72
2022/04/17 02:36:18;;;;;;;;;;;14.80;93.00;;;;;;5091036;28;19920;-71
2022/04/17 02:38:43;;;;;;;;;;;14.90;93.00;;;;;;5091252;28;20453;-71
2022/04/17 02:41:09;;;;;;;;;;;14.90;92.90;;;;;;5091134;28;19990;-70
2022/04/17 02:43:35;;;;;;;;;;;14.80;92.90;;;;;;5090392;28;19908;-68
2022/04/17 02:46:01;;;;;;;;;;;14.80;92.90;;;;;;5072169;28;19909;-70
2022/04/17 02:48:27;;;;;;;;;;;14.80;93.00;;;;;;5090322;28;19916;-71
2022/04/17 02:50:53;;;;;;;;;;;14.80;93.00;;;;;;5090083;28;19908;-69
2022/04/17 02:53:20;;;;;;;;;;;14.80;93.00;;;;;;5091786;28;20304;-69
2022/04/17 02:55:46;;;;;;;;;;;14.80;93.00;;;;;;5075783;28;19908;-70
2022/04/17 02:58:12;;;;;;;;;;;14.80;92.80;;;;;;5094239;28;19999;-70
2022/04/17 03:05:36;;;;;;;;;;;14.90;92.30;;;;;;5093880;28;19908;-70
2022/04/17 03:06:10;;;;;;;;;;;14.90;92.30;;;;;;5094122;28;19935;-69
2022/04/17 03:08:40;;;;;;;;;;;15.00;92.50;;;;;;5094036;28;20344;-69
2022/04/17 03:11:05;;;;;;;;;;;15.00;92.10;;;;;;5093750;28;20369;-69
2022/04/17 03:13:31;;;;;;;;;;;15.10;91.70;;;;;;5093863;28;19908;-69
2022/04/17 03:15:57;;;;;;;;;;;15.00;91.80;;;;;;5093588;28;19908;-69
2022/04/17 03:18:23;;;;;;;;;;;15.00;91.80;;;;;;5093802;28;19915;-70
2022/04/17 03:20:49;;;;;;;;;;;14.90;91.80;;;;;;5093432;28;20259;-69
2022/04/17 03:23:15;;;;;;;;;;;14.90;91.80;;;;;;5093257;28;20015;-69
2022/04/17 03:25:41;;;;;;;;;;;14.80;91.90;;;;;;5093216;28;20026;-69
2022/04/17 03:28:07;;;;;;;;;;;14.80;92.00;;;;;;5093247;28;19916;-69
2022/04/17 03:30:32;;;;;;;;;;;14.70;92.10;;;;;;5093550;28;19908;-69
2022/04/17 03:33:00;;;;;;;;;;;14.70;92.50;;;;;;5093353;28;20271;-70
2022/04/17 03:35:26;;;;;;;;;;;14.70;92.60;;;;;;5093314;28;19908;-68
2022/04/17 03:37:53;;;;;;;;;;;14.70;92.60;;;;;;5074727;28;19915;-69
2022/04/17 03:40:19;;;;;;;;;;;14.70;92.90;;;;;;5093056;28;19935;-69
2022/04/17 03:42:45;;;;;;;;;;;14.70;93.20;;;;;;5093135;28;19912;-69
2022/04/17 03:45:11;;;;;;;;;;;14.70;93.10;;;;;;5074980;28;20309;-69
2022/04/17 03:47:38;;;;;;;;;;;14.70;92.90;;;;;;5074496;28;19912;-70
2022/04/17 03:50:04;;;;;;;;;;;14.70;92.80;;;;;;5093119;28;20340;-69
2022/04/17 03:52:39;;;;;;;;;;;14.70;92.80;;;;;;5092706;28;19994;-69
2022/04/17 03:55:05;;;;;;;;;;;14.70;93.30;;;;;;5092839;28;19957;-70
2022/04/17 03:57:31;;;;;;;;;;;14.60;93.50;;;;;;5092745;28;20008;-69
2022/04/17 03:59:57;;;;;;;;;;;14.60;93.40;;;;;;5092876;28;19908;-70
2022/04/17 04:02:24;;;;;;;;;;;14.60;93.00;;;;;;5092600;28;19984;-69
2022/04/17 04:04:50;;;;;;;;;;;14.60;92.80;;;;;;5092436;28;19916;-69
2022/04/17 04:07:16;;;;;;;;;;;14.60;92.60;;;;;;5092612;28;19919;-69
2022/04/17 04:09:42;;;;;;;;;;;14.60;92.30;;;;;;5092612;28;19912;-69
2022/04/17 04:12:08;;;;;;;;;;;14.60;92.50;;;;;;5092448;28;19931;-69
2022/04/17 04:14:33;;;;;;;;;;;14.50;92.60;;;;;;5092672;28;19908;-69
2022/04/17 04:16:59;;;;;;;;;;;14.50;92.50;;;;;;5092518;28;19928;-69
2022/04/17 04:19:25;;;;;;;;;;;14.50;92.70;;;;;;5073950;28;20390;-70
2022/04/17 04:21:51;;;;;;;;;;;14.50;94.20;;;;;;5092299;28;20312;-69
2022/04/17 04:24:19;;;;;;;;;;;14.50;94.20;;;;;;5074318;28;19912;-69
2022/04/17 04:28:32;;;;;;;;;;;14.50;94.10;;;;;;5092073;28;19919;-70
2022/04/17 04:29:31;;;;;;;;;;;14.50;94.10;;;;;;5092023;28;19922;-69
2022/04/17 04:31:57;;;;;;;;;;;14.50;94.90;;;;;;5092177;28;19915;-69
2022/04/17 04:34:23;;;;;;;;;;;14.50;95.20;;;;;;5092203;28;20413;-69
2022/04/17 04:36:49;;;;;;;;;;;14.40;95.20;;;;;;5092166;28;19920;-69
2022/04/17 04:39:15;;;;;;;;;;;14.40;95.30;;;;;;5092064;28;19913;-71
2022/04/17 04:41:41;;;;;;;;;;;14.30;95.30;;;;;;5092127;28;19908;-69
2022/04/17 04:44:06;;;;;;;;;;;14.40;94.60;;;;;;5091905;28;20323;-69
2022/04/17 04:46:32;;;;;;;;;;;14.30;94.70;;;;;;5092180;28;19912;-70
2022/04/17 04:51:42;;;;;;;;;;;14.30;96.20;;;;;;5091718;28;19988;-69
2022/04/17 04:54:08;;;;;;;;;;;14.20;96.70;;;;;;5091788;28;19909;-69
2022/04/17 04:56:34;;;;;;;;;;;14.20;96.80;;;;;;5091975;28;19916;-69
2022/04/17 04:59:00;;;;;;;;;;;14.30;96.90;;;;;;5091507;28;19912;-69
2022/04/17 05:01:26;;;;;;;;;;;14.40;96.70;;;;;;5090705;28;19919;-69
2022/04/17 05:03:52;;;;;;;;;;;14.50;96.70;;;;;;5090323;28;19969;-69
2022/04/17 05:06:18;;;;;;;;;;;14.60;96.90;;;;;;5090444;28;20007;-69
2022/04/17 05:08:44;;;;;;;;;;;14.60;96.60;;;;;;5091225;28;19923;-69
2022/04/17 05:11:09;;;;;;;;;;;14.70;96.50;;;;;;5083722;28;19916;-69
2022/04/17 05:13:35;;;;;;;;;;;14.90;96.90;;;;;;5071007;28;19948;-69
2022/04/17 05:16:02;;;;;;;;;;;14.80;95.60;;;;;;5058396;28;20006;-68
2022/04/17 05:18:28;;;;;;;;;;;14.60;95.30;;;;;;5072884;28;19952;-68
2022/04/17 05:20:55;;;;;;;;;;;14.60;95.50;;;;;;5091510;28;19916;-69
2022/04/17 05:23:25;;;;;;;;;;;14.70;95.60;;;;;;5091127;28;19915;-69
2022/04/17 05:25:55;;;;;;;;;;;14.70;95.70;;;;;;5091149;28;20343;-68
2022/04/17 05:28:21;;;;;;;;;;;14.70;96.20;;;;;;5091206;28;19916;-68
2022/04/17 05:30:47;;;;;;;;;;;15.20;96.50;;;;;;5091120;28;20019;-66
2022/04/17 05:33:14;;;;;;;;;;;16.50;95.30;;;;;;5089938;28;19919;-69
2022/04/17 05:35:39;;;;;;;;;;;18.50;92.90;;;;;;5090350;28;19916;-68
2022/04/17 05:38:05;;;;;;;;;;;20.10;90.30;;;;;;5090153;28;19980;-69
2022/04/17 05:40:35;;;;;;;;;;;20.80;88.00;;;;;;5089920;28;19908;-69
2022/04/17 05:43:01;;;;;;;;;;;20.60;86.70;;;;;;5090885;28;19909;-69
2022/04/17 05:45:27;;;;;;;;;;;20.10;86.30;;;;;;5091117;28;19912;-70
2022/04/17 05:47:53;;;;;;;;;;;19.80;87.30;;;;;;5090859;28;20050;-69
2022/04/17 05:50:19;;;;;;;;;;;19.50;87.20;;;;;;5090284;28;19916;-69
2022/04/17 05:52:45;;;;;;;;;;;19.10;86.60;;;;;;5072154;28;20342;-66
2022/04/17 05:55:11;;;;;;;;;;;19.30;87.40;;;;;;5090777;28;19915;-69
2022/04/17 05:57:37;;;;;;;;;;;19.40;84.40;;;;;;5090800;28;20348;-69
2022/04/17 06:00:03;;;;;;;;;;;19.30;84.40;;;;;;5090679;28;19908;-69
2022/04/17 06:02:29;;;;;;;;;;;18.90;84.20;;;;;;5090857;28;19912;-69
2022/04/17 06:04:55;;;;;;;;;;;18.50;84.80;;;;;;5090690;28;19927;-69
2022/04/17 06:07:28;;;;;;;;;;;18.20;84.70;;;;;;5090719;28;20351;-63
2022/04/17 06:09:54;;;;;;;;;;;18.10;88.90;;;;;;5092533;28;19912;-68
2022/04/17 06:12:19;;;;;;;;;;;17.40;90.70;;;;;;5072672;28;20010;-65
2022/04/17 06:14:45;;;;;;;;;;;17.30;88.40;;;;;;5091129;28;19920;-69
2022/04/17 06:17:11;;;;;;;;;;;17.20;88.60;;;;;;5090783;28;19908;-69
2022/04/17 06:19:37;;;;;;;;;;;17.20;89.80;;;;;;5090853;28;19927;-68
2022/04/17 06:22:03;;;;;;;;;;;17.30;91.50;;;;;;5090875;28;20324;-68
2022/04/17 06:24:29;;;;;;;;;;;17.40;92.10;;;;;;5090885;28;19984;-68
2022/04/17 06:26:55;;;;;;;;;;;17.50;91.80;;;;;;5091688;28;20311;-68
2022/04/17 06:29:20;;;;;;;;;;;17.40;91.90;;;;;;5094710;28;19923;-69
2022/04/17 06:31:46;;;;;;;;;;;17.50;91.50;;;;;;5094641;28;19908;-77
2022/04/17 06:34:12;;;;;;;;;;;17.60;91.60;;;;;;5094893;28;19977;-71
2022/04/17 06:36:39;;;;;;;;;;;17.50;92.70;;;;;;5094460;28;19940;-70
2022/04/17 06:39:05;;;;;;;;;;;17.50;91.10;;;;;;5094752;28;20240;-70
2022/04/17 06:41:30;;;;;;;;;;;17.30;91.30;;;;;;5094290;28;19908;-70
2022/04/17 06:43:56;;;;;;;;;;;17.30;91.60;;;;;;5093560;28;20417;-69
2022/04/17 06:46:22;;;;;;;;;;;17.50;91.90;;;;;;5093941;28;19947;-70
2022/04/17 06:48:48;;;;;;;;;;;17.70;92.00;;;;;;5093982;28;19968;-71
2022/04/17 06:51:14;;;;;;;;;;;17.70;92.10;;;;;;5093937;28;20422;-70
2022/04/17 06:53:40;;;;;;;;;;;17.90;92.60;;;;;;5094285;28;19923;-70
2022/04/17 06:56:12;;;;;;;;;;;18.20;93.30;;;;;;5094012;28;19943;-70
2022/04/17 06:58:38;;;;;;;;;;;18.70;92.00;;;;;;5094085;28;19964;-70
2022/04/17 07:01:04;;;;;;;;;;;20.10;90.50;;;;;;5094032;28;19991;-66
2022/04/17 07:03:29;;;;;;;;;;;22.10;87.50;;;;;;5094000;28;19912;-69
2022/04/17 07:05:55;;;;;;;;;;;24.10;84.50;;;;;;5094062;28;19916;-67
2022/04/17 07:08:21;;;;;;;;;;;26.40;80.50;;;;;;5093943;28;19935;-70
2022/04/17 07:10:48;;;;;;;;;;;27.70;76.00;;;;;;5075349;28;20011;-71
2022/04/17 07:13:18;;;;;;;;;;;28.80;73.00;;;;;;5093603;28;19920;-71
2022/04/17 07:15:44;;;;;;;;;;;29.30;70.60;;;;;;5075843;28;19908;-71
2022/04/17 07:18:10;;;;;;;;;;;28.90;69.40;;;;;;5093755;28;19919;-70
2022/04/17 07:20:36;;;;;;;;;;;28.70;68.90;;;;;;5094017;28;19915;-71
2022/04/17 07:23:03;;;;;;;;;;;29.20;70.10;;;;;;5093470;28;19961;-71
2022/04/17 07:25:29;;;;;;;;;;;28.80;69.60;;;;;;5093789;28;20265;-69
2022/04/17 07:27:55;;;;;;;;;;;28.90;68.80;;;;;;5093784;28;19924;-70
2022/04/17 07:30:22;;;;;;;;;;;28.20;70.50;;;;;;5093770;28;19969;-71
2022/04/17 07:32:49;;;;;;;;;;;27.40;71.40;;;;;;5093380;28;20356;-70
2022/04/17 07:35:17;;;;;;;;;;;26.40;71.70;;;;;;5093613;28;20331;-70
2022/04/17 07:37:49;;;;;;;;;;;25.90;77.80;;;;;;5093235;28;19909;-70
2022/04/17 07:40:17;;;;;;;;;;;25.60;76.40;;;;;;5092587;28;19908;-66
2022/04/17 07:42:43;;;;;;;;;;;24.40;75.90;;;;;;5093180;28;19908;-70
2022/04/17 07:45:09;;;;;;;;;;;23.50;76.90;;;;;;5092979;28;20320;-70
2022/04/17 07:47:35;;;;;;;;;;;23.10;79.60;;;;;;5092843;28;19912;-70
2022/04/17 07:50:01;;;;;;;;;;;23.40;79.50;;;;;;5093061;28;19937;-70
2022/04/17 07:52:27;;;;;;;;;;;23.70;79.60;;;;;;5092268;28;20264;-71
2022/04/17 07:54:54;;;;;;;;;;;23.80;79.10;;;;;;5092578;28;19994;-70
2022/04/17 07:57:20;;;;;;;;;;;23.40;79.40;;;;;;5092205;28;19916;-70
2022/04/17 07:59:46;;;;;;;;;;;23.10;77.90;;;;;;5092125;28;19915;-70
2022/04/17 08:02:21;;;;;;;;;;;22.90;79.10;;;;;;5092006;28;20318;-70
2022/04/17 08:04:51;;;;;;;;;;;23.00;78.90;;;;;;5092265;28;19909;-70
2022/04/17 08:07:18;;;;;;;;;;;22.80;77.60;;;;;;5073607;28;19912;-70
2022/04/17 08:09:45;;;;;;;;;;;22.90;77.90;;;;;;5091828;28;19947;-70
2022/04/17 08:12:10;;;;;;;;;;;22.90;78.20;;;;;;5092172;28;19912;-70
2022/04/17 08:14:36;;;;;;;;;;;23.00;76.30;;;;;;5090950;28;19988;-70
2022/04/17 08:17:02;;;;;;;;;;;23.00;76.50;;;;;;5074351;28;19916;-70
2022/04/17 08:19:29;;;;;;;;;;;23.30;76.90;;;;;;5074924;28;19915;-70
2022/04/17 08:21:55;;;;;;;;;;;23.70;76.40;;;;;;5093514;28;19909;-71
2022/04/17 08:24:21;;;;;;;;;;;23.60;76.50;;;;;;5093045;28;19908;-69
2022/04/17 08:26:47;;;;;;;;;;;23.30;76.40;;;;;;5093139;28;19995;-70
2022/04/17 08:29:13;;;;;;;;;;;22.90;76.40;;;;;;5093117;28;19920;-70
2022/04/17 08:31:39;;;;;;;;;;;22.80;77.50;;;;;;5093674;28;19908;-70
2022/04/17 08:34:05;;;;;;;;;;;22.80;78.30;;;;;;5093032;28;20313;-70
2022/04/17 08:36:30;;;;;;;;;;;23.20;79.40;;;;;;5092509;28;19995;-71
2022/04/17 08:38:56;;;;;;;;;;;23.40;79.80;;;;;;5093235;28;19985;-71
2022/04/17 08:41:23;;;;;;;;;;;23.60;79.90;;;;;;5092917;28;19908;-71
2022/04/17 08:43:48;;;;;;;;;;;24.00;84.20;;;;;;5091763;28;19916;-71
2022/04/17 08:46:14;;;;;;;;;;;24.10;85.30;;;;;;5092749;28;19913;-71
2022/04/17 08:48:40;;;;;;;;;;;24.50;84.80;;;;;;5092428;28;19955;-70
2022/04/17 08:51:06;;;;;;;;;;;24.80;83.40;;;;;;5090213;28;19912;-71
2022/04/17 08:53:34;;;;;;;;;;;24.60;83.30;;;;;;5091956;28;19958;-64
2022/04/17 08:56:00;;;;;;;;;;;24.30;83.20;;;;;;5091550;28;19916;-69
2022/04/17 08:58:26;;;;;;;;;;;23.90;84.20;;;;;;5090962;28;19931;-66
2022/04/17 09:00:53;;;;;;;;;;;24.00;83.60;;;;;;5085356;28;20003;-70
2022/04/17 09:03:19;;;;;;;;;;;23.90;83.20;;;;;;5085514;28;19908;-70
2022/04/17 09:05:45;;;;;;;;;;;24.00;83.10;;;;;;5073047;28;19970;-69
2022/04/17 09:08:14;;;;;;;;;;;23.90;83.20;;;;;;5091413;28;19989;-70
2022/04/17 09:10:40;;;;;;;;;;;23.60;84.20;;;;;;5091424;28;20363;-70
2022/04/17 09:13:06;;;;;;;;;;;23.40;84.70;;;;;;5091535;28;19972;-71
2022/04/17 09:15:35;;;;;;;;;;;23.10;84.30;;;;;;5091244;28;19914;-70
2022/04/17 09:18:01;;;;;;;;;;;23.10;85.40;;;;;;5091244;28;19935;-70
2022/04/17 09:20:27;;;;;;;;;;;23.10;85.40;;;;;;5091326;28;19914;-71
2022/04/17 09:22:54;;;;;;;;;;;23.10;85.70;;;;;;5091016;28;19961;-71
2022/04/17 09:25:22;;;;;;;;;;;23.30;84.90;;;;;;5091309;28;20010;-71
2022/04/17 09:28:01;;;;;;;;;;;23.30;84.20;;;;;;5082921;28;19917;-70
2022/04/17 09:30:46;;;;;;;;;;;23.20;84.30;;;;;;5052778;28;19935;-70
2022/04/17 09:33:13;;;;;;;;;;;23.10;80.80;;;;;;5071486;28;20018;-71
2022/04/17 09:35:39;;;;;;;;;;;23.00;76.60;;;;;;5052820;28;19962;-72
2022/04/17 09:38:05;;;;;;;;;;;23.00;76.40;;;;;;5071243;28;19908;-71
2022/04/17 09:40:31;;;;;;;;;;;22.60;78.30;;;;;;5071966;28;19908;-72
2022/04/17 09:43:09;;;;;;;;;;;22.70;78.70;;;;;;5071799;28;20305;-72
2022/04/17 09:45:54;;;;;;;;;;;22.80;77.80;;;;;;5071329;28;19909;-71
2022/04/17 09:48:20;;;;;;;;;;;22.40;77.80;;;;;;5071210;28;19939;-71
2022/04/17 09:50:46;;;;;;;;;;;22.00;79.40;;;;;;5070743;28;20272;-71
2022/04/17 09:53:28;;;;;;;;;;;21.70;78.50;;;;;;5070810;28;19928;-70
2022/04/17 09:56:03;;;;;;;;;;;21.50;80.60;;;;;;5070217;28;20352;-71
2022/04/17 09:58:29;;;;;;;;;;;21.90;81.90;;;;;;5071414;28;19916;-71
2022/04/17 10:00:58;;;;;;;;;;;22.20;81.50;;;;;;5071239;28;20011;-71
2022/04/17 10:03:23;;;;;;;;;;;22.30;81.50;;;;;;5073764;28;19996;-70
2022/04/17 10:05:50;;;;;;;;;;;22.20;84.50;;;;;;5074967;28;19966;-71
2022/04/17 10:08:15;;;;;;;;;;;21.70;87.80;;;;;;5074952;28;20224;-71
2022/04/17 10:10:41;;;;;;;;;;;21.70;89.10;;;;;;5075122;28;19949;-71
2022/04/17 10:13:07;;;;;;;;;;;21.60;90.30;;;;;;5075122;28;19909;-71
2022/04/17 10:15:37;;;;;;;;;;;21.60;90.00;;;;;;5074645;28;19995;-70
2022/04/17 10:18:04;;;;;;;;;;;21.90;88.90;;;;;;5074389;28;19928;-71
2022/04/17 10:20:30;;;;;;;;;;;22.00;89.40;;;;;;5074759;28;19962;-71
2022/04/17 10:22:57;;;;;;;;;;;21.90;90.70;;;;;;5074540;28;19999;-71
2022/04/17 10:25:23;;;;;;;;;;;21.80;90.60;;;;;;5074623;28;19923;-70
2022/04/17 10:27:52;;;;;;;;;;;21.80;91.00;;;;;;5074319;28;19923;-71
2022/04/17 10:30:22;;;;;;;;;;;21.70;92.10;;;;;;5074437;28;19989;-70
2022/04/17 10:33:08;;;;;;;;;;;21.90;92.40;;;;;;5074328;28;19919;-70
2022/04/17 10:36:00;;;;;;;;;;;22.00;92.70;;;;;;5056175;28;20253;-70
2022/04/17 10:38:26;;;;;;;;;;;22.10;92.60;;;;;;5043161;28;20412;-71
2022/04/17 10:40:53;;;;;;;;;;;22.10;92.60;;;;;;5074494;28;19995;-72
2022/04/17 10:43:20;;;;;;;;;;;22.30;91.40;;;;;;5074302;28;20351;-71
2022/04/17 10:46:04;;;;;;;;;;;22.60;91.00;;;;;;5074668;28;19985;-71
2022/04/17 10:48:30;;;;;;;;;;;23.00;91.20;;;;;;5074404;28;19940;-73
2022/04/17 10:50:56;;;;;;;;;;;23.00;91.70;;;;;;5074409;28;20256;-72
2022/04/17 10:53:25;;;;;;;;;;;22.70;92.10;;;;;;5074436;28;19924;-73
2022/04/17 10:56:03;;;;;;;;;;;22.80;91.50;;;;;;5073903;28;20249;-71
2022/04/17 10:58:35;;;;;;;;;;;22.70;91.80;;;;;;5073780;28;19908;-72
2022/04/17 11:01:01;;;;;;;;;;;22.70;91.80;;;;;;5073849;28;20000;-71
2022/04/17 11:03:27;;;;;;;;;;;22.90;90.90;;;;;;5074229;28;20003;-71
2022/04/17 11:08:48;;;;;;;;;;;22.90;90.10;;;;;;5073882;28;19916;-71
2022/04/17 11:11:14;;;;;;;;;;;22.90;90.00;;;;;;5073929;28;19927;-71
2022/04/17 11:13:59;;;;;;;;;;;22.70;89.20;;;;;;5073107;28;19915;-72
2022/04/17 11:16:27;;;;;;;;;;;22.80;89.20;;;;;;5073678;28;19908;-71
2022/04/17 11:18:53;;;;;;;;;;;22.90;87.10;;;;;;5074418;28;20003;-71
2022/04/17 11:21:23;;;;;;;;;;;23.10;85.80;;;;;;5073795;28;19909;-72
2022/04/17 11:23:48;;;;;;;;;;;23.20;86.30;;;;;;5073916;28;20216;-72
2022/04/17 11:26:14;;;;;;;;;;;23.10;85.90;;;;;;5073592;28;19973;-73
2022/04/17 11:28:40;;;;;;;;;;;23.00;88.30;;;;;;5073887;28;19920;-71
2022/04/17 11:31:06;;;;;;;;;;;22.50;90.00;;;;;;5073583;28;19966;-73
2022/04/17 11:33:32;;;;;;;;;;;22.40;91.20;;;;;;5073680;28;19960;-72
2022/04/17 11:35:58;;;;;;;;;;;22.20;92.00;;;;;;5073598;28;19909;-72
2022/04/17 11:38:24;;;;;;;;;;;22.30;91.70;;;;;;5055128;28;20397;-71
2022/04/17 11:40:50;;;;;;;;;;;22.40;91.60;;;;;;5073154;28;19966;-71
2022/04/17 11:43:17;;;;;;;;;;;22.60;92.60;;;;;;5073393;28;19909;-72
2022/04/17 11:45:44;;;;;;;;;;;22.40;93.20;;;;;;5073528;28;19952;-72
2022/04/17 11:48:11;;;;;;;;;;;22.40;93.10;;;;;;5073129;28;19917;-72
2022/04/17 11:50:37;;;;;;;;;;;22.20;93.90;;;;;;5073350;28;19908;-71
2022/04/17 11:53:05;;;;;;;;;;;22.10;93.80;;;;;;5072979;28;19924;-71
2022/04/17 11:55:32;;;;;;;;;;;22.10;91.60;;;;;;5073067;28;19966;-71
2022/04/17 11:57:58;;;;;;;;;;;22.40;91.40;;;;;;5054870;28;19912;-72
2022/04/17 12:00:25;;;;;;;;;;;22.40;92.70;;;;;;5072955;28;19995;-71
2022/04/17 12:02:55;;;;;;;;;;;22.50;92.70;;;;;;5073030;28;19966;-70
2022/04/17 12:05:21;;;;;;;;;;;22.70;91.00;;;;;;5072839;28;19912;-71
2022/04/17 12:07:54;;;;;;;;;;;22.40;91.20;;;;;;5072601;28;19912;-72
2022/04/17 12:10:22;;;;;;;;;;;21.80;92.80;;;;;;5073281;28;20305;-71
2022/04/17 12:12:47;;;;;;;;;;;21.80;92.90;;;;;;5072633;28;19909;-71
2022/04/17 12:15:15;;;;;;;;;;;21.60;93.10;;;;;;5072630;28;19969;-70
2022/04/17 12:17:41;;;;;;;;;;;21.50;93.70;;;;;;5072483;28;19912;-71
2022/04/17 12:20:13;;;;;;;;;;;21.20;92.90;;;;;;5072722;28;19909;-72
2022/04/17 12:22:41;;;;;;;;;;;21.40;93.70;;;;;;5072440;28;19961;-71
2022/04/17 12:25:17;;;;;;;;;;;21.50;94.00;;;;;;5072132;28;20425;-71
2022/04/17 12:27:45;;;;;;;;;;;21.70;93.90;;;;;;5072547;28;20017;-71
2022/04/17 12:30:10;;;;;;;;;;;21.30;94.60;;;;;;5072391;28;19923;-70
2022/04/17 12:32:46;;;;;;;;;;;21.60;94.00;;;;;;5072364;28;19909;-71
2022/04/17 12:35:32;;;;;;;;;;;21.70;94.20;;;;;;5071606;28;20723;-71
2022/04/17 12:38:04;;;;;;;;;;;22.00;94.30;;;;;;5072503;28;20331;-71
2022/04/17 12:40:31;;;;;;;;;;;22.50;93.20;;;;;;5072074;28;19908;-71
2022/04/17 12:43:16;;;;;;;;;;;22.70;91.70;;;;;;5072086;28;19963;-71
2022/04/17 12:45:53;;;;;;;;;;;22.70;91.60;;;;;;5072417;28;19955;-71
2022/04/17 12:48:23;;;;;;;;;;;22.60;91.40;;;;;;5053815;28;19921;-71
2022/04/17 12:50:56;;;;;;;;;;;22.50;91.30;;;;;;5071952;28;19961;-71
2022/04/17 12:53:22;;;;;;;;;;;22.60;91.70;;;;;;5071886;28;20265;-71
2022/04/17 12:55:51;;;;;;;;;;;22.70;91.20;;;;;;5071738;28;19923;-71
2022/04/17 12:58:17;;;;;;;;;;;22.70;91.50;;;;;;5072041;28;20402;-70
2022/04/17 13:00:42;;;;;;;;;;;22.30;90.50;;;;;;5071962;28;19912;-72
2022/04/17 13:03:13;;;;;;;;;;;21.50;90.80;;;;;;5071700;28;19960;-71
2022/04/17 13:05:39;;;;;;;;;;;21.40;90.80;;;;;;5071793;28;19908;-71
2022/04/17 13:08:05;;;;;;;;;;;21.00;91.50;;;;;;5071371;28;20018;-71
2022/04/17 13:10:32;;;;;;;;;;;21.30;89.60;;;;;;5071836;28;19999;-69
2022/04/17 13:12:57;;;;;;;;;;;21.50;87.30;;;;;;5071760;28;19912;-70
2022/04/17 13:15:33;;;;;;;;;;;21.90;85.40;;;;;;5071992;28;20202;-71
2022/04/17 13:17:59;;;;;;;;;;;22.20;84.60;;;;;;5071986;28;19916;-70
2022/04/17 13:20:27;;;;;;;;;;;22.60;83.90;;;;;;5072251;28;20372;-71
2022/04/17 13:22:53;;;;;;;;;;;22.70;82.70;;;;;;5072224;28;20298;-71
2022/04/17 13:25:19;;;;;;;;;;;22.10;81.80;;;;;;5072294;28;20310;-70
2022/04/17 13:27:46;;;;;;;;;;;22.10;83.40;;;;;;5072196;28;19920;-70
2022/04/17 13:30:13;;;;;;;;;;;22.40;84.80;;;;;;5072105;28;19959;-70
2022/04/17 13:32:39;;;;;;;;;;;22.50;84.20;;;;;;5072201;28;19908;-71
2022/04/17 13:35:06;;;;;;;;;;;22.20;83.60;;;;;;5071910;28;19908;-70
2022/04/17 13:40:15;;;;;;;;;;;21.40;86.40;;;;;;5071622;28;20329;-71
2022/04/17 13:42:41;;;;;;;;;;;21.00;84.40;;;;;;5053510;28;20008;-70
2022/04/17 13:45:08;;;;;;;;;;;20.60;85.90;;;;;;5071573;28;20004;-70
2022/04/17 13:47:35;;;;;;;;;;;21.00;85.60;;;;;;5071715;28;19912;-71
2022/04/17 13:50:01;;;;;;;;;;;21.10;82.60;;;;;;5071463;28;19908;-70
2022/04/17 13:52:27;;;;;;;;;;;20.70;82.20;;;;;;5071353;28;20283;-70
2022/04/17 13:54:54;;;;;;;;;;;20.60;83.40;;;;;;5071072;28;19908;-70
2022/04/17 13:57:20;;;;;;;;;;;20.60;81.80;;;;;;5071136;28;19908;-70
2022/04/17 13:59:46;;;;;;;;;;;20.60;81.10;;;;;;5071327;28;19908;-71
2022/04/17 14:02:12;;;;;;;;;;;20.60;80.60;;;;;;5070996;28;19908;-70
2022/04/17 14:04:38;;;;;;;;;;;20.40;81.80;;;;;;5071304;28;19916;-70
2022/04/17 14:07:08;;;;;;;;;;;20.30;81.90;;;;;;5053357;28;20368;-71
2022/04/17 14:09:35;;;;;;;;;;;19.80;82.40;;;;;;5071385;28;19921;-70
2022/04/17 14:12:01;;;;;;;;;;;19.70;83.00;;;;;;5071798;28;19920;-70
2022/04/17 14:14:27;;;;;;;;;;;20.00;82.70;;;;;;5071263;28;19908;-70
2022/04/17 14:16:53;;;;;;;;;;;20.10;81.90;;;;;;5071926;28;19915;-70
2022/04/17 14:19:19;;;;;;;;;;;20.20;81.50;;;;;;5072184;28;19909;-70
2022/04/17 14:21:48;;;;;;;;;;;20.10;81.90;;;;;;5072270;28;20341;-71
2022/04/17 14:24:14;;;;;;;;;;;20.10;81.70;;;;;;5072071;28;19909;-70
2022/04/17 14:26:39;;;;;;;;;;;20.10;81.40;;;;;;5071731;28;19909;-70
2022/04/17 14:29:05;;;;;;;;;;;20.00;82.30;;;;;;5072244;28;19923;-71
2022/04/17 14:31:31;;;;;;;;;;;19.80;82.20;;;;;;5071851;28;19974;-69